sensor_id;sensor_type;location;lat;lon;timestamp;temperature;humidity
4187;DHT22;2107;52.306;10.484;2023-05-10T00:00:37;14.10;82.80
4187;DHT22;2107;52.306;10.484;2023-05-10T00:03:04;14.10;83.10
4187;DHT22;2107;52.306;10.484;2023-05-10T00:05:31;14.10;83.10
4187;DHT22;2107;52.306;10.484;2023-05-10T00:07:58;13.90;83.50
4187;DHT22;2107;52.306;10.484;2023-05-10T00:10:25;13.90;83.70
4187;DHT22;2107;52.306;10.484;2023-05-10T00:12:52;13.90;83.90
4187;DHT22;2107;52.306;10.484;2023-05-10T00:15:19;13.90;84.90
4187;DHT22;2107;52.306;10.484;2023-05-10T00:17:47;13.90;83.90
4187;DHT22;2107;52.306;10.484;2023-05-10T00:20:14;14.00;84.00
4187;DHT22;2107;52.306;10.484;2023-05-10T00:22:41;13.90;84.30
4187;DHT22;2107;52.306;10.484;2023-05-10T00:25:08;14.00;84.20
4187;DHT22;2107;52.306;10.484;2023-05-10T00:27:36;13.90;84.30
4187;DHT22;2107;52.306;10.484;2023-05-10T00:30:03;13.90;84.60
4187;DHT22;2107;52.306;10.484;2023-05-10T00:32:30;13.90;84.40
4187;DHT22;2107;52.306;10.484;2023-05-10T00:34:58;13.80;84.80
4187;DHT22;2107;52.306;10.484;2023-05-10T00:37:25;13.80;85.10
4187;DHT22;2107;52.306;10.484;2023-05-10T00:39:52;13.60;85.50
4187;DHT22;2107;52.306;10.484;2023-05-10T00:42:18;13.60;86.10
4187;DHT22;2107;52.306;10.484;2023-05-10T00:44:45;13.60;86.20
4187;DHT22;2107;52.306;10.484;2023-05-10T00:47:12;13.60;86.30
4187;DHT22;2107;52.306;10.484;2023-05-10T00:49:39;13.50;86.50
4187;DHT22;2107;52.306;10.484;2023-05-10T00:52:08;13.50;86.50
4187;DHT22;2107;52.306;10.484;2023-05-10T00:54:36;13.50;87.00
4187;DHT22;2107;52.306;10.484;2023-05-10T00:57:03;13.60;86.90
4187;DHT22;2107;52.306;10.484;2023-05-10T00:59:30;13.50;87.00
4187;DHT22;2107;52.306;10.484;2023-05-10T01:01:57;13.50;87.30
4187;DHT22;2107;52.306;10.484;2023-05-10T01:04:24;13.40;87.40
4187;DHT22;2107;52.306;10.484;2023-05-10T01:06:52;13.40;87.50
4187;DHT22;2107;52.306;10.484;2023-05-10T01:09:21;13.40;87.60
4187;DHT22;2107;52.306;10.484;2023-05-10T01:11:48;13.50;87.50
4187;DHT22;2107;52.306;10.484;2023-05-10T01:14:18;13.50;87.40
4187;DHT22;2107;52.306;10.484;2023-05-10T01:16:47;13.40;87.30
4187;DHT22;2107;52.306;10.484;2023-05-10T01:19:18;13.40;87.60
4187;DHT22;2107;52.306;10.484;2023-05-10T01:21:52;13.30;87.90
4187;DHT22;2107;52.306;10.484;2023-05-10T01:25:01;13.40;88.40
4187;DHT22;2107;52.306;10.484;2023-05-10T01:30:49;13.20;88.60
4187;DHT22;2107;52.306;10.484;2023-05-10T01:33:23;13.20;88.70
4187;DHT22;2107;52.306;10.484;2023-05-10T01:35:55;13.20;88.90
4187;DHT22;2107;52.306;10.484;2023-05-10T01:38:32;13.10;89.30
4187;DHT22;2107;52.306;10.484;2023-05-10T01:41:08;13.10;89.40
4187;DHT22;2107;52.306;10.484;2023-05-10T01:43:44;13.10;90.10
4187;DHT22;2107;52.306;10.484;2023-05-10T01:46:17;13.10;89.80
4187;DHT22;2107;52.306;10.484;2023-05-10T01:48:48;13.00;90.00
4187;DHT22;2107;52.306;10.484;2023-05-10T01:51:19;13.00;90.20
4187;DHT22;2107;52.306;10.484;2023-05-10T01:53:48;12.90;90.20
4187;DHT22;2107;52.306;10.484;2023-05-10T01:56:20;12.90;90.40
4187;DHT22;2107;52.306;10.484;2023-05-10T01:58:49;12.90;90.40
4187;DHT22;2107;52.306;10.484;2023-05-10T02:01:18;12.90;90.40
4187;DHT22;2107;52.306;10.484;2023-05-10T02:03:50;12.80;90.50
4187;DHT22;2107;52.306;10.484;2023-05-10T02:06:18;12.80;90.70
4187;DHT22;2107;52.306;10.484;2023-05-10T02:08:47;12.70;90.70
4187;DHT22;2107;52.306;10.484;2023-05-10T02:11:18;12.60;90.90
4187;DHT22;2107;52.306;10.484;2023-05-10T02:13:47;12.60;91.10
4187;DHT22;2107;52.306;10.484;2023-05-10T02:16:16;12.50;91.20
4187;DHT22;2107;52.306;10.484;2023-05-10T02:18:43;12.60;91.30
4187;DHT22;2107;52.306;10.484;2023-05-10T02:21:13;12.60;91.30
4187;DHT22;2107;52.306;10.484;2023-05-10T02:23:41;12.60;91.30
4187;DHT22;2107;52.306;10.484;2023-05-10T02:26:09;12.60;91.40
4187;DHT22;2107;52.306;10.484;2023-05-10T02:28:38;12.50;91.50
4187;DHT22;2107;52.306;10.484;2023-05-10T02:31:05;12.50;91.70
4187;DHT22;2107;52.306;10.484;2023-05-10T02:33:35;12.50;91.70
4187;DHT22;2107;52.306;10.484;2023-05-10T02:36:02;12.60;91.60
4187;DHT22;2107;52.306;10.484;2023-05-10T02:38:32;12.50;91.70
4187;DHT22;2107;52.306;10.484;2023-05-10T02:41:00;12.50;92.00
4187;DHT22;2107;52.306;10.484;2023-05-10T02:43:30;12.50;92.00
4187;DHT22;2107;52.306;10.484;2023-05-10T02:45:58;12.50;92.10
4187;DHT22;2107;52.306;10.484;2023-05-10T02:48:25;12.40;92.20
4187;DHT22;2107;52.306;10.484;2023-05-10T02:50:53;12.40;92.30
4187;DHT22;2107;52.306;10.484;2023-05-10T02:53:23;12.40;92.40
4187;DHT22;2107;52.306;10.484;2023-05-10T02:55:55;12.40;92.60
4187;DHT22;2107;52.306;10.484;2023-05-10T02:58:23;12.30;92.60
4187;DHT22;2107;52.306;10.484;2023-05-10T03:00:50;12.50;93.00
4187;DHT22;2107;52.306;10.484;2023-05-10T03:03:17;12.20;93.10
4187;DHT22;2107;52.306;10.484;2023-05-10T03:05:44;12.20;93.50
4187;DHT22;2107;52.306;10.484;2023-05-10T03:08:11;12.10;93.70
4187;DHT22;2107;52.306;10.484;2023-05-10T03:10:46;12.10;94.00
4187;DHT22;2107;52.306;10.484;2023-05-10T03:13:34;12.00;94.20
4187;DHT22;2107;52.306;10.484;2023-05-10T03:16:07;12.00;94.50
4187;DHT22;2107;52.306;10.484;2023-05-10T03:18:42;11.90;94.70
4187;DHT22;2107;52.306;10.484;2023-05-10T03:21:11;12.00;94.60
4187;DHT22;2107;52.306;10.484;2023-05-10T03:23:43;12.00;94.70
4187;DHT22;2107;52.306;10.484;2023-05-10T03:26:12;12.00;94.90
4187;DHT22;2107;52.306;10.484;2023-05-10T03:28:43;12.10;94.80
4187;DHT22;2107;52.306;10.484;2023-05-10T03:31:11;12.10;94.70
4187;DHT22;2107;52.306;10.484;2023-05-10T03:33:46;12.10;94.60
4187;DHT22;2107;52.306;10.484;2023-05-10T03:36:13;12.10;94.70
4187;DHT22;2107;52.306;10.484;2023-05-10T03:38:40;12.10;94.70
4187;DHT22;2107;52.306;10.484;2023-05-10T03:41:07;12.10;94.90
4187;DHT22;2107;52.306;10.484;2023-05-10T03:43:33;12.10;95.10
4187;DHT22;2107;52.306;10.484;2023-05-10T03:46:03;12.00;95.10
4187;DHT22;2107;52.306;10.484;2023-05-10T03:48:32;12.00;95.30
4187;DHT22;2107;52.306;10.484;2023-05-10T03:50:59;12.00;95.30
4187;DHT22;2107;52.306;10.484;2023-05-10T03:53:26;12.00;95.50
4187;DHT22;2107;52.306;10.484;2023-05-10T03:55:53;12.10;95.80
4187;DHT22;2107;52.306;10.484;2023-05-10T03:58:20;12.00;95.50
4187;DHT22;2107;52.306;10.484;2023-05-10T04:00:47;12.00;95.40
4187;DHT22;2107;52.306;10.484;2023-05-10T04:03:15;12.10;95.60
4187;DHT22;2107;52.306;10.484;2023-05-10T04:05:43;12.10;95.60
4187;DHT22;2107;52.306;10.484;2023-05-10T04:08:10;12.20;95.60
4187;DHT22;2107;52.306;10.484;2023-05-10T04:10:37;12.20;95.40
4187;DHT22;2107;52.306;10.484;2023-05-10T04:13:04;12.10;95.60
4187;DHT22;2107;52.306;10.484;2023-05-10T04:15:30;12.10;95.60
4187;DHT22;2107;52.306;10.484;2023-05-10T04:17:57;12.10;95.80
4187;DHT22;2107;52.306;10.484;2023-05-10T04:20:25;12.00;95.80
4187;DHT22;2107;52.306;10.484;2023-05-10T04:22:52;12.00;96.00
4187;DHT22;2107;52.306;10.484;2023-05-10T04:25:19;12.00;96.30
4187;DHT22;2107;52.306;10.484;2023-05-10T04:27:46;12.00;96.40
4187;DHT22;2107;52.306;10.484;2023-05-10T04:30:13;12.00;96.70
4187;DHT22;2107;52.306;10.484;2023-05-10T04:32:40;12.00;96.70
4187;DHT22;2107;52.306;10.484;2023-05-10T04:35:07;12.00;96.60
4187;DHT22;2107;52.306;10.484;2023-05-10T04:37:36;11.90;97.00
4187;DHT22;2107;52.306;10.484;2023-05-10T04:40:04;11.90;97.10
4187;DHT22;2107;52.306;10.484;2023-05-10T04:42:31;11.90;97.20
4187;DHT22;2107;52.306;10.484;2023-05-10T04:44:58;11.90;97.40
4187;DHT22;2107;52.306;10.484;2023-05-10T04:47:25;11.80;97.60
4187;DHT22;2107;52.306;10.484;2023-05-10T04:49:52;11.80;98.10
4187;DHT22;2107;52.306;10.484;2023-05-10T04:52:19;11.80;98.30
4187;DHT22;2107;52.306;10.484;2023-05-10T04:54:47;11.80;98.50
4187;DHT22;2107;52.306;10.484;2023-05-10T04:57:14;11.70;98.50
4187;DHT22;2107;52.306;10.484;2023-05-10T04:59:41;11.80;99.00
4187;DHT22;2107;52.306;10.484;2023-05-10T05:02:08;11.90;99.10
4187;DHT22;2107;52.306;10.484;2023-05-10T05:04:35;11.70;99.30
4187;DHT22;2107;52.306;10.484;2023-05-10T05:07:02;11.70;99.50
4187;DHT22;2107;52.306;10.484;2023-05-10T05:09:28;11.60;99.70
4187;DHT22;2107;52.306;10.484;2023-05-10T05:11:58;11.80;99.90
4187;DHT22;2107;52.306;10.484;2023-05-10T05:14:26;11.60;99.90
4187;DHT22;2107;52.306;10.484;2023-05-10T05:16:52;11.60;99.90
4187;DHT22;2107;52.306;10.484;2023-05-10T05:19:19;11.60;99.90
4187;DHT22;2107;52.306;10.484;2023-05-10T05:21:46;11.50;99.90
4187;DHT22;2107;52.306;10.484;2023-05-10T05:24:13;11.50;99.90
4187;DHT22;2107;52.306;10.484;2023-05-10T05:26:40;11.50;99.90
4187;DHT22;2107;52.306;10.484;2023-05-10T05:29:08;11.40;99.90
4187;DHT22;2107;52.306;10.484;2023-05-10T05:31:35;11.40;99.90
4187;DHT22;2107;52.306;10.484;2023-05-10T05:34:02;11.40;99.90
4187;DHT22;2107;52.306;10.484;2023-05-10T05:36:29;11.40;99.90
4187;DHT22;2107;52.306;10.484;2023-05-10T05:38:56;11.40;99.90
4187;DHT22;2107;52.306;10.484;2023-05-10T05:41:23;11.30;99.90
4187;DHT22;2107;52.306;10.484;2023-05-10T05:43:50;11.30;99.90
4187;DHT22;2107;52.306;10.484;2023-05-10T05:46:18;11.30;99.90
4187;DHT22;2107;52.306;10.484;2023-05-10T05:48:45;11.20;99.90
4187;DHT22;2107;52.306;10.484;2023-05-10T05:51:12;11.20;99.90
4187;DHT22;2107;52.306;10.484;2023-05-10T05:53:39;11.20;99.90
4187;DHT22;2107;52.306;10.484;2023-05-10T05:56:06;11.20;99.90
4187;DHT22;2107;52.306;10.484;2023-05-10T05:58:33;11.20;99.90
4187;DHT22;2107;52.306;10.484;2023-05-10T06:01:00;11.30;99.90
4187;DHT22;2107;52.306;10.484;2023-05-10T06:03:28;11.30;99.90
4187;DHT22;2107;52.306;10.484;2023-05-10T06:05:55;11.40;99.90
4187;DHT22;2107;52.306;10.484;2023-05-10T06:08:22;11.40;99.90
4187;DHT22;2107;52.306;10.484;2023-05-10T06:10:49;11.40;99.90
4187;DHT22;2107;52.306;10.484;2023-05-10T06:13:15;11.50;99.90
4187;DHT22;2107;52.306;10.484;2023-05-10T06:15:42;11.60;99.90
4187;DHT22;2107;52.306;10.484;2023-05-10T06:18:09;11.80;99.90
4187;DHT22;2107;52.306;10.484;2023-05-10T06:20:37;11.80;99.90
4187;DHT22;2107;52.306;10.484;2023-05-10T06:23:04;11.70;99.90
4187;DHT22;2107;52.306;10.484;2023-05-10T06:25:31;11.70;99.90
4187;DHT22;2107;52.306;10.484;2023-05-10T06:27:58;11.80;99.90
4187;DHT22;2107;52.306;10.484;2023-05-10T06:30:25;11.90;99.90
4187;DHT22;2107;52.306;10.484;2023-05-10T06:32:54;12.00;99.90
4187;DHT22;2107;52.306;10.484;2023-05-10T06:35:21;12.10;99.90
4187;DHT22;2107;52.306;10.484;2023-05-10T06:37:50;12.20;99.90
4187;DHT22;2107;52.306;10.484;2023-05-10T06:40:18;12.20;99.90
4187;DHT22;2107;52.306;10.484;2023-05-10T06:42:45;12.40;99.90
4187;DHT22;2107;52.306;10.484;2023-05-10T06:45:12;12.20;99.90
4187;DHT22;2107;52.306;10.484;2023-05-10T06:47:40;12.00;99.90
4187;DHT22;2107;52.306;10.484;2023-05-10T06:50:07;12.10;99.90
4187;DHT22;2107;52.306;10.484;2023-05-10T06:52:34;12.10;99.90
4187;DHT22;2107;52.306;10.484;2023-05-10T06:55:03;11.90;99.90
4187;DHT22;2107;52.306;10.484;2023-05-10T06:57:30;11.80;99.90
4187;DHT22;2107;52.306;10.484;2023-05-10T06:59:56;11.70;99.90
4187;DHT22;2107;52.306;10.484;2023-05-10T07:02:23;11.50;99.90
4187;DHT22;2107;52.306;10.484;2023-05-10T07:04:50;11.40;99.90
4187;DHT22;2107;52.306;10.484;2023-05-10T07:07:18;11.40;99.90
4187;DHT22;2107;52.306;10.484;2023-05-10T07:09:45;11.40;99.90
4187;DHT22;2107;52.306;10.484;2023-05-10T07:12:13;11.40;99.90
4187;DHT22;2107;52.306;10.484;2023-05-10T07:14:40;11.50;99.90
4187;DHT22;2107;52.306;10.484;2023-05-10T07:17:07;11.70;99.90
4187;DHT22;2107;52.306;10.484;2023-05-10T07:19:33;11.70;99.90
4187;DHT22;2107;52.306;10.484;2023-05-10T07:22:00;11.80;99.90
4187;DHT22;2107;52.306;10.484;2023-05-10T07:24:27;11.70;99.90
4187;DHT22;2107;52.306;10.484;2023-05-10T07:26:54;11.60;99.90
4187;DHT22;2107;52.306;10.484;2023-05-10T07:29:22;11.50;99.90
4187;DHT22;2107;52.306;10.484;2023-05-10T07:31:49;11.50;99.90
4187;DHT22;2107;52.306;10.484;2023-05-10T07:34:16;11.50;99.90
4187;DHT22;2107;52.306;10.484;2023-05-10T07:36:43;11.40;99.90
4187;DHT22;2107;52.306;10.484;2023-05-10T07:39:10;11.40;99.90
4187;DHT22;2107;52.306;10.484;2023-05-10T07:41:37;11.50;99.90
4187;DHT22;2107;52.306;10.484;2023-05-10T07:44:04;11.60;99.90
4187;DHT22;2107;52.306;10.484;2023-05-10T07:46:32;11.70;99.90
4187;DHT22;2107;52.306;10.484;2023-05-10T07:48:59;11.70;99.90
4187;DHT22;2107;52.306;10.484;2023-05-10T07:51:26;11.80;99.90
4187;DHT22;2107;52.306;10.484;2023-05-10T07:53:53;11.70;99.90
4187;DHT22;2107;52.306;10.484;2023-05-10T07:56:22;11.80;99.90
4187;DHT22;2107;52.306;10.484;2023-05-10T07:58:50;11.90;99.90
4187;DHT22;2107;52.306;10.484;2023-05-10T08:01:17;11.80;99.90
4187;DHT22;2107;52.306;10.484;2023-05-10T08:03:45;11.80;99.90
4187;DHT22;2107;52.306;10.484;2023-05-10T08:06:13;11.90;99.90
4187;DHT22;2107;52.306;10.484;2023-05-10T08:08:40;12.00;99.90
4187;DHT22;2107;52.306;10.484;2023-05-10T08:11:07;12.00;99.90
4187;DHT22;2107;52.306;10.484;2023-05-10T08:13:34;12.10;99.90
4187;DHT22;2107;52.306;10.484;2023-05-10T08:16:01;12.40;99.90
4187;DHT22;2107;52.306;10.484;2023-05-10T08:18:28;12.70;99.90
4187;DHT22;2107;52.306;10.484;2023-05-10T08:20:56;12.80;99.90
4187;DHT22;2107;52.306;10.484;2023-05-10T08:23:23;13.20;99.90
4187;DHT22;2107;52.306;10.484;2023-05-10T08:25:50;13.20;99.90
4187;DHT22;2107;52.306;10.484;2023-05-10T08:28:16;13.60;99.90
4187;DHT22;2107;52.306;10.484;2023-05-10T08:30:43;13.30;99.90
4187;DHT22;2107;52.306;10.484;2023-05-10T08:33:10;13.20;99.90
4187;DHT22;2107;52.306;10.484;2023-05-10T08:35:37;13.00;99.90
4187;DHT22;2107;52.306;10.484;2023-05-10T08:38:05;12.90;99.90
4187;DHT22;2107;52.306;10.484;2023-05-10T08:40:32;12.90;99.90
4187;DHT22;2107;52.306;10.484;2023-05-10T08:43:05;12.90;99.90
4187;DHT22;2107;52.306;10.484;2023-05-10T08:45:33;12.80;99.90
4187;DHT22;2107;52.306;10.484;2023-05-10T08:48:02;12.90;99.90
4187;DHT22;2107;52.306;10.484;2023-05-10T08:50:30;12.90;99.90
4187;DHT22;2107;52.306;10.484;2023-05-10T08:53:00;13.00;99.90
4187;DHT22;2107;52.306;10.484;2023-05-10T08:55:28;13.10;99.90
4187;DHT22;2107;52.306;10.484;2023-05-10T08:57:55;13.00;99.90
4187;DHT22;2107;52.306;10.484;2023-05-10T09:00:22;13.20;99.90
4187;DHT22;2107;52.306;10.484;2023-05-10T09:02:50;13.20;99.90
4187;DHT22;2107;52.306;10.484;2023-05-10T09:05:17;13.10;99.90
4187;DHT22;2107;52.306;10.484;2023-05-10T09:07:44;13.10;99.90
4187;DHT22;2107;52.306;10.484;2023-05-10T09:10:11;13.00;99.90
4187;DHT22;2107;52.306;10.484;2023-05-10T09:12:41;13.00;99.90
4187;DHT22;2107;52.306;10.484;2023-05-10T09:15:09;13.10;99.90
4187;DHT22;2107;52.306;10.484;2023-05-10T09:17:38;13.00;99.90
4187;DHT22;2107;52.306;10.484;2023-05-10T09:20:07;13.10;99.90
4187;DHT22;2107;52.306;10.484;2023-05-10T09:22:34;13.10;99.90
4187;DHT22;2107;52.306;10.484;2023-05-10T09:25:05;13.20;99.90
4187;DHT22;2107;52.306;10.484;2023-05-10T09:27:32;13.20;99.90
4187;DHT22;2107;52.306;10.484;2023-05-10T09:30:01;13.10;99.90
4187;DHT22;2107;52.306;10.484;2023-05-10T09:32:37;13.20;99.90
4187;DHT22;2107;52.306;10.484;2023-05-10T09:35:08;13.20;99.90
4187;DHT22;2107;52.306;10.484;2023-05-10T09:37:35;13.30;99.90
4187;DHT22;2107;52.306;10.484;2023-05-10T09:40:05;13.30;99.90
4187;DHT22;2107;52.306;10.484;2023-05-10T09:42:33;13.30;99.90
4187;DHT22;2107;52.306;10.484;2023-05-10T09:45:03;13.40;99.90
4187;DHT22;2107;52.306;10.484;2023-05-10T09:47:32;13.40;99.90
4187;DHT22;2107;52.306;10.484;2023-05-10T09:49:59;13.40;99.90
4187;DHT22;2107;52.306;10.484;2023-05-10T09:52:29;13.50;99.90
4187;DHT22;2107;52.306;10.484;2023-05-10T09:54:56;13.70;99.90
4187;DHT22;2107;52.306;10.484;2023-05-10T09:57:24;13.80;99.90
4187;DHT22;2107;52.306;10.484;2023-05-10T09:59:51;14.00;99.90
4187;DHT22;2107;52.306;10.484;2023-05-10T10:02:21;14.10;99.90
4187;DHT22;2107;52.306;10.484;2023-05-10T10:04:55;14.20;99.90
4187;DHT22;2107;52.306;10.484;2023-05-10T10:07:23;14.30;99.90
4187;DHT22;2107;52.306;10.484;2023-05-10T10:09:51;14.40;99.90
4187;DHT22;2107;52.306;10.484;2023-05-10T10:12:18;14.50;99.90
4187;DHT22;2107;52.306;10.484;2023-05-10T10:14:46;14.60;99.90
4187;DHT22;2107;52.306;10.484;2023-05-10T10:17:15;14.60;99.90
4187;DHT22;2107;52.306;10.484;2023-05-10T10:19:43;14.70;99.90
4187;DHT22;2107;52.306;10.484;2023-05-10T10:22:11;14.60;99.90
4187;DHT22;2107;52.306;10.484;2023-05-10T10:24:38;14.60;99.90
4187;DHT22;2107;52.306;10.484;2023-05-10T10:27:16;14.50;99.90
4187;DHT22;2107;52.306;10.484;2023-05-10T10:29:52;14.50;99.90
4187;DHT22;2107;52.306;10.484;2023-05-10T10:32:30;14.60;99.90
4187;DHT22;2107;52.306;10.484;2023-05-10T10:35:01;14.40;99.90
4187;DHT22;2107;52.306;10.484;2023-05-10T10:37:42;14.30;99.90
4187;DHT22;2107;52.306;10.484;2023-05-10T10:40:25;14.10;99.90
4187;DHT22;2107;52.306;10.484;2023-05-10T10:42:52;14.20;99.90
4187;DHT22;2107;52.306;10.484;2023-05-10T10:45:20;14.30;99.90
4187;DHT22;2107;52.306;10.484;2023-05-10T10:47:47;14.40;99.90
4187;DHT22;2107;52.306;10.484;2023-05-10T10:50:16;14.50;99.90
4187;DHT22;2107;52.306;10.484;2023-05-10T10:52:43;14.60;99.90
4187;DHT22;2107;52.306;10.484;2023-05-10T10:55:12;14.60;99.90
4187;DHT22;2107;52.306;10.484;2023-05-10T10:57:44;14.70;99.90
4187;DHT22;2107;52.306;10.484;2023-05-10T11:00:22;14.80;99.90
4187;DHT22;2107;52.306;10.484;2023-05-10T11:02:51;14.80;99.90
4187;DHT22;2107;52.306;10.484;2023-05-10T11:05:40;15.20;99.90
4187;DHT22;2107;52.306;10.484;2023-05-10T11:08:10;15.40;99.90
4187;DHT22;2107;52.306;10.484;2023-05-10T11:10:38;15.70;99.90
4187;DHT22;2107;52.306;10.484;2023-05-10T11:13:06;15.30;99.90
4187;DHT22;2107;52.306;10.484;2023-05-10T11:15:34;15.10;99.90
4187;DHT22;2107;52.306;10.484;2023-05-10T11:18:17;15.10;99.90
4187;DHT22;2107;52.306;10.484;2023-05-10T11:20:50;15.20;99.90
4187;DHT22;2107;52.306;10.484;2023-05-10T11:23:17;15.40;99.90
4187;DHT22;2107;52.306;10.484;2023-05-10T11:25:46;15.40;99.90
4187;DHT22;2107;52.306;10.484;2023-05-10T11:28:14;15.70;99.90
4187;DHT22;2107;52.306;10.484;2023-05-10T11:30:43;16.10;99.90
4187;DHT22;2107;52.306;10.484;2023-05-10T11:33:15;16.50;99.90
4187;DHT22;2107;52.306;10.484;2023-05-10T11:35:42;17.00;99.90
4187;DHT22;2107;52.306;10.484;2023-05-10T11:38:11;17.30;99.90
4187;DHT22;2107;52.306;10.484;2023-05-10T11:40:39;17.50;99.90
4187;DHT22;2107;52.306;10.484;2023-05-10T11:43:06;17.20;99.90
4187;DHT22;2107;52.306;10.484;2023-05-10T11:45:33;17.40;99.90
4187;DHT22;2107;52.306;10.484;2023-05-10T11:48:01;17.30;99.90
4187;DHT22;2107;52.306;10.484;2023-05-10T11:50:28;17.30;99.90
4187;DHT22;2107;52.306;10.484;2023-05-10T11:52:55;17.30;99.90
4187;DHT22;2107;52.306;10.484;2023-05-10T11:55:25;17.30;99.90
4187;DHT22;2107;52.306;10.484;2023-05-10T11:57:53;17.40;99.90
4187;DHT22;2107;52.306;10.484;2023-05-10T12:00:20;17.80;99.90
4187;DHT22;2107;52.306;10.484;2023-05-10T12:02:47;17.80;99.90
4187;DHT22;2107;52.306;10.484;2023-05-10T12:05:15;18.00;99.90
4187;DHT22;2107;52.306;10.484;2023-05-10T12:07:43;18.30;99.90
4187;DHT22;2107;52.306;10.484;2023-05-10T12:10:11;18.10;99.90
4187;DHT22;2107;52.306;10.484;2023-05-10T12:12:43;18.60;99.90
4187;DHT22;2107;52.306;10.484;2023-05-10T12:15:17;19.30;99.90
4187;DHT22;2107;52.306;10.484;2023-05-10T12:17:45;19.50;99.90
4187;DHT22;2107;52.306;10.484;2023-05-10T12:20:19;20.00;99.90
4187;DHT22;2107;52.306;10.484;2023-05-10T12:22:49;20.00;99.90
4187;DHT22;2107;52.306;10.484;2023-05-10T12:25:16;19.70;99.90
4187;DHT22;2107;52.306;10.484;2023-05-10T12:27:53;19.70;99.90
4187;DHT22;2107;52.306;10.484;2023-05-10T12:30:21;20.40;99.90
4187;DHT22;2107;52.306;10.484;2023-05-10T12:32:48;20.80;99.90
4187;DHT22;2107;52.306;10.484;2023-05-10T12:35:15;20.40;99.90
4187;DHT22;2107;52.306;10.484;2023-05-10T12:37:43;20.30;99.90
4187;DHT22;2107;52.306;10.484;2023-05-10T12:40:11;21.20;99.90
4187;DHT22;2107;52.306;10.484;2023-05-10T12:42:38;21.00;99.90
4187;DHT22;2107;52.306;10.484;2023-05-10T12:45:08;19.60;99.90
4187;DHT22;2107;52.306;10.484;2023-05-10T12:47:35;19.80;99.90
4187;DHT22;2107;52.306;10.484;2023-05-10T12:50:03;20.30;99.90
4187;DHT22;2107;52.306;10.484;2023-05-10T12:52:30;20.50;99.90
4187;DHT22;2107;52.306;10.484;2023-05-10T12:54:58;20.70;99.90
4187;DHT22;2107;52.306;10.484;2023-05-10T12:57:25;20.80;99.90
4187;DHT22;2107;52.306;10.484;2023-05-10T12:59:52;21.20;99.90
4187;DHT22;2107;52.306;10.484;2023-05-10T13:02:20;20.50;99.90
4187;DHT22;2107;52.306;10.484;2023-05-10T13:04:48;21.40;99.90
4187;DHT22;2107;52.306;10.484;2023-05-10T13:07:15;22.30;99.90
4187;DHT22;2107;52.306;10.484;2023-05-10T13:09:42;22.40;99.90
4187;DHT22;2107;52.306;10.484;2023-05-10T13:12:09;21.20;99.90
4187;DHT22;2107;52.306;10.484;2023-05-10T13:14:36;19.30;99.90
4187;DHT22;2107;52.306;10.484;2023-05-10T13:17:03;20.60;99.90
4187;DHT22;2107;52.306;10.484;2023-05-10T13:19:31;20.80;99.90
4187;DHT22;2107;52.306;10.484;2023-05-10T13:21:58;20.90;99.90
4187;DHT22;2107;52.306;10.484;2023-05-10T13:24:25;21.30;99.90
4187;DHT22;2107;52.306;10.484;2023-05-10T13:26:52;20.90;99.90
4187;DHT22;2107;52.306;10.484;2023-05-10T13:29:18;20.60;99.90
4187;DHT22;2107;52.306;10.484;2023-05-10T13:31:46;21.20;99.90
4187;DHT22;2107;52.306;10.484;2023-05-10T13:34:13;21.80;99.90
4187;DHT22;2107;52.306;10.484;2023-05-10T13:36:41;21.50;99.90
4187;DHT22;2107;52.306;10.484;2023-05-10T13:39:08;21.50;99.90
4187;DHT22;2107;52.306;10.484;2023-05-10T13:41:35;22.00;99.90
4187;DHT22;2107;52.306;10.484;2023-05-10T13:44:02;21.70;99.90
4187;DHT22;2107;52.306;10.484;2023-05-10T13:46:29;21.10;99.90
4187;DHT22;2107;52.306;10.484;2023-05-10T13:48:56;20.20;99.90
4187;DHT22;2107;52.306;10.484;2023-05-10T13:51:23;19.70;99.90
4187;DHT22;2107;52.306;10.484;2023-05-10T13:53:51;19.90;99.90
4187;DHT22;2107;52.306;10.484;2023-05-10T13:56:18;19.60;99.90
4187;DHT22;2107;52.306;10.484;2023-05-10T13:58:45;19.60;99.90
4187;DHT22;2107;52.306;10.484;2023-05-10T14:01:11;18.90;99.90
4187;DHT22;2107;52.306;10.484;2023-05-10T14:03:38;18.70;99.90
4187;DHT22;2107;52.306;10.484;2023-05-10T14:06:05;18.80;99.90
4187;DHT22;2107;52.306;10.484;2023-05-10T14:08:33;18.50;99.90
4187;DHT22;2107;52.306;10.484;2023-05-10T14:11:01;18.30;99.90
4187;DHT22;2107;52.306;10.484;2023-05-10T14:13:28;18.70;99.90
4187;DHT22;2107;52.306;10.484;2023-05-10T14:15:55;18.70;99.90
4187;DHT22;2107;52.306;10.484;2023-05-10T14:18:22;18.40;99.90
4187;DHT22;2107;52.306;10.484;2023-05-10T14:20:49;18.20;99.90
4187;DHT22;2107;52.306;10.484;2023-05-10T14:23:16;18.00;99.90
4187;DHT22;2107;52.306;10.484;2023-05-10T14:25:43;18.20;99.90
4187;DHT22;2107;52.306;10.484;2023-05-10T14:28:11;18.20;99.90
4187;DHT22;2107;52.306;10.484;2023-05-10T14:30:38;18.40;99.90
4187;DHT22;2107;52.306;10.484;2023-05-10T14:33:06;18.60;99.90
4187;DHT22;2107;52.306;10.484;2023-05-10T14:35:33;18.70;99.90
4187;DHT22;2107;52.306;10.484;2023-05-10T14:38:01;18.40;99.90
4187;DHT22;2107;52.306;10.484;2023-05-10T14:40:29;18.50;99.90
4187;DHT22;2107;52.306;10.484;2023-05-10T14:42:56;18.40;99.90
4187;DHT22;2107;52.306;10.484;2023-05-10T14:45:24;18.70;99.90
4187;DHT22;2107;52.306;10.484;2023-05-10T14:47:51;19.60;99.90
4187;DHT22;2107;52.306;10.484;2023-05-10T14:50:17;18.80;99.90
4187;DHT22;2107;52.306;10.484;2023-05-10T14:52:44;18.60;99.90
4187;DHT22;2107;52.306;10.484;2023-05-10T14:55:11;18.40;99.90
4187;DHT22;2107;52.306;10.484;2023-05-10T14:57:38;18.70;99.90
4187;DHT22;2107;52.306;10.484;2023-05-10T15:00:06;19.10;99.90
4187;DHT22;2107;52.306;10.484;2023-05-10T15:02:34;18.70;99.90
4187;DHT22;2107;52.306;10.484;2023-05-10T15:05:02;18.20;99.90
4187;DHT22;2107;52.306;10.484;2023-05-10T15:07:29;19.10;99.90
4187;DHT22;2107;52.306;10.484;2023-05-10T15:09:56;19.70;99.90
4187;DHT22;2107;52.306;10.484;2023-05-10T15:12:23;20.70;99.90
4187;DHT22;2107;52.306;10.484;2023-05-10T15:14:50;20.50;99.90
4187;DHT22;2107;52.306;10.484;2023-05-10T15:17:17;22.00;99.90
4187;DHT22;2107;52.306;10.484;2023-05-10T15:19:45;22.60;99.90
4187;DHT22;2107;52.306;10.484;2023-05-10T15:22:12;22.80;99.90
4187;DHT22;2107;52.306;10.484;2023-05-10T15:24:39;23.10;99.90
4187;DHT22;2107;52.306;10.484;2023-05-10T15:27:06;22.60;99.90
4187;DHT22;2107;52.306;10.484;2023-05-10T15:29:32;20.50;99.90
4187;DHT22;2107;52.306;10.484;2023-05-10T15:32:01;20.40;99.90
4187;DHT22;2107;52.306;10.484;2023-05-10T15:34:28;21.00;99.90
4187;DHT22;2107;52.306;10.484;2023-05-10T15:36:57;21.30;99.90
4187;DHT22;2107;52.306;10.484;2023-05-10T15:39:24;21.00;99.90
4187;DHT22;2107;52.306;10.484;2023-05-10T15:41:50;20.10;99.90
4187;DHT22;2107;52.306;10.484;2023-05-10T15:44:17;19.20;99.90
4187;DHT22;2107;52.306;10.484;2023-05-10T15:46:44;19.60;99.90
4187;DHT22;2107;52.306;10.484;2023-05-10T15:49:11;20.60;99.90
4187;DHT22;2107;52.306;10.484;2023-05-10T15:51:38;21.40;99.90
4187;DHT22;2107;52.306;10.484;2023-05-10T15:54:06;21.50;99.90